Time;durP1;ratioP1;P1;durP2;ratioP2;P2;SDS_P1;SDS_P2;PMS_P1;PMS_P2;Temp;Humidity;BMP_temperature;BMP_pressure;BME280_temperature;BME280_humidity;BME280_pressure;Samples;Min_cycle;Max_cycle;Signal;HPM_P1;HPM_P2
2021/05/21 00:00:18;;;;;;;0.00;0.00;;;13.50;68.80;;;16.65;55.93;100767.13;5011793;27;98244;-72
2021/05/21 00:02:46;;;;;;;0.00;0.00;;;13.50;68.90;;;16.68;55.67;100750.22;5032212;27;99820;-73
2021/05/21 00:05:14;;;;;;;0.00;0.00;;;13.50;68.90;;;16.69;56.16;100740.97;5043639;27;97177;-72
2021/05/21 00:07:51;;;;;;;0.17;0.17;;;13.50;68.90;;;16.66;56.58;100738.94;5033240;27;97568;-72
2021/05/21 00:10:21;;;;;;;0.00;0.00;;;13.50;68.90;;;16.69;56.69;100733.66;5011825;27;97945;-73
2021/05/21 00:12:49;;;;;;;0.30;0.30;;;13.50;68.90;;;16.70;55.80;100723.59;5044840;27;97242;-71
2021/05/21 00:15:19;;;;;;;0.00;0.00;;;13.60;68.90;;;16.78;56.03;100719.97;5046242;27;96602;-71
2021/05/21 00:17:47;;;;;;;0.10;0.10;;;13.50;68.90;;;16.75;56.53;100709.84;5044701;27;96903;-72
2021/05/21 00:20:16;;;;;;;0.10;0.10;;;13.50;68.80;;;16.77;55.84;100718.38;5017267;27;98230;-72
2021/05/21 00:22:45;;;;;;;0.00;0.00;;;13.60;68.90;;;16.74;55.49;100710.97;5033433;27;97010;-72
2021/05/21 00:25:14;;;;;;;0.00;0.00;;;13.50;68.80;;;16.73;55.65;100698.56;5048293;27;96960;-72
2021/05/21 00:27:43;;;;;;;0.10;0.10;;;13.60;68.90;;;16.71;56.06;100695.41;5030995;27;97942;-72
2021/05/21 00:30:14;;;;;;;0.73;0.52;;;13.50;68.80;;;16.68;55.58;100702.31;5048893;27;97069;-72
2021/05/21 00:32:42;;;;;;;0.52;0.43;;;13.60;68.90;;;16.67;55.67;100686.41;5016064;27;97450;-72
2021/05/21 00:35:12;;;;;;;0.00;0.00;;;13.50;68.80;;;16.63;56.62;100689.00;5049230;27;97001;-72
2021/05/21 00:37:41;;;;;;;0.00;0.00;;;13.50;68.90;;;16.58;56.31;100678.44;5030524;27;97970;-71
2021/05/21 00:40:11;;;;;;;0.10;0.10;;;13.50;68.90;;;16.59;55.68;100677.28;5045842;27;96838;-72
2021/05/21 00:42:39;;;;;;;0.00;0.00;;;13.50;68.90;;;16.54;56.18;100679.47;5029432;27;99341;-71
2021/05/21 00:45:10;;;;;;;0.10;0.10;;;13.50;69.00;;;16.55;56.21;100664.81;5027492;27;96962;-72
2021/05/21 00:47:39;;;;;;;0.00;0.00;;;13.40;68.90;;;16.56;56.93;100655.56;5045926;27;97872;-72
2021/05/21 00:50:09;;;;;;;0.00;0.00;;;13.40;69.00;;;16.54;56.18;100653.19;5030617;27;97696;-72
2021/05/21 00:52:42;;;;;;;0.10;0.10;;;13.40;69.00;;;16.59;55.92;100655.66;5033759;27;96722;-72
2021/05/21 00:55:12;;;;;;;0.00;0.00;;;13.40;69.00;;;16.54;56.48;100636.19;5046665;27;96720;-72
2021/05/21 00:57:43;;;;;;;0.00;0.00;;;13.40;69.00;;;16.49;56.33;100622.88;5014092;27;97017;-72
2021/05/21 01:00:14;;;;;;;0.65;0.52;;;13.40;69.00;;;16.49;56.76;100618.28;5030445;27;97179;-72
2021/05/21 01:02:42;;;;;;;0.00;0.00;;;13.30;69.00;;;16.44;56.09;100617.72;5027097;27;97382;-73
2021/05/21 01:05:13;;;;;;;0.10;0.10;;;13.40;69.10;;;16.50;55.88;100619.84;5028593;27;97202;-72
2021/05/21 01:07:41;;;;;;;0.00;0.00;;;13.30;69.10;;;16.49;56.56;100610.16;5010081;27;98321;-72
2021/05/21 01:10:11;;;;;;;1.95;0.88;;;13.40;69.10;;;16.54;55.77;100615.31;5028853;27;99685;-72
2021/05/21 01:12:39;;;;;;;0.17;0.17;;;13.30;69.10;;;16.53;55.98;100602.94;5030198;27;96832;-72
2021/05/21 01:15:11;;;;;;;0.20;0.20;;;13.30;69.10;;;16.48;56.16;100599.69;5044105;27;96795;-71
2021/05/21 01:17:40;;;;;;;0.70;0.63;;;13.30;69.10;;;16.53;56.47;100596.75;5044006;27;97824;-72
2021/05/21 01:20:14;;;;;;;0.00;0.00;;;13.40;69.10;;;16.52;56.53;100601.34;5030874;27;97689;-72
2021/05/21 01:22:43;;;;;;;0.00;0.00;;;13.40;69.10;;;16.50;56.18;100597.41;5039648;27;96839;-72
2021/05/21 01:25:13;;;;;;;0.10;0.10;;;13.40;69.10;;;16.50;55.93;100592.81;5029531;27;97295;-73
2021/05/21 01:27:41;;;;;;;1.75;1.45;;;13.40;69.10;;;16.47;56.78;100603.50;5048487;27;98088;-72
2021/05/21 01:30:11;;;;;;;0.00;0.00;;;13.40;69.10;;;16.50;56.62;100592.00;5027936;27;100316;-72
2021/05/21 01:32:41;;;;;;;0.10;0.10;;;13.40;69.10;;;16.49;56.31;100580.41;5037393;27;96798;-72
2021/05/21 01:35:10;;;;;;;0.10;0.10;;;13.40;69.10;;;16.48;56.46;100572.63;5043989;27;97200;-72
2021/05/21 01:37:43;;;;;;;2.05;0.45;;;13.40;69.20;;;16.45;56.96;100563.31;5027498;27;96880;-72
2021/05/21 01:40:14;;;;;;;0.10;0.10;;;13.30;69.10;;;16.46;56.86;100562.19;5014643;27;96799;-72
2021/05/21 01:42:43;;;;;;;0.00;0.00;;;13.40;69.20;;;16.46;56.53;100566.78;5045002;27;97321;-72
2021/05/21 01:45:13;;;;;;;0.10;0.10;;;13.40;69.20;;;16.42;56.17;100564.00;5046740;27;97582;-72
2021/05/21 01:47:42;;;;;;;3.50;0.65;;;13.40;69.20;;;16.44;56.68;100561.72;5042958;27;97496;-72
2021/05/21 01:50:11;;;;;;;0.22;0.17;;;13.30;69.20;;;16.41;57.14;100556.22;5029151;27;97725;-72
2021/05/21 01:52:39;;;;;;;0.13;0.05;;;13.30;69.20;;;16.43;56.81;100552.03;5007394;27;96901;-72
2021/05/21 01:55:09;;;;;;;0.00;0.00;;;13.40;69.20;;;16.48;56.23;100551.78;5024577;27;97407;-72
2021/05/21 01:57:42;;;;;;;0.10;0.10;;;13.40;69.30;;;16.49;56.19;100550.66;5045814;27;96864;-72
2021/05/21 02:00:13;;;;;;;0.10;0.10;;;13.40;69.20;;;16.49;56.66;100536.34;5045461;27;96848;-71
2021/05/21 02:02:43;;;;;;;0.00;0.00;;;13.40;69.20;;;16.47;56.26;100528.59;5023446;27;97458;-72
2021/05/21 02:05:12;;;;;;;0.00;0.00;;;13.40;69.30;;;16.46;55.85;100534.31;5044854;27;96949;-72
2021/05/21 02:07:40;;;;;;;0.52;0.40;;;13.30;69.20;;;16.46;56.14;100526.22;5031679;27;97879;-72
2021/05/21 02:10:13;;;;;;;0.10;0.10;;;13.30;69.90;;;16.46;56.68;100523.50;5033905;27;97875;-72
2021/05/21 02:12:44;;;;;;;0.20;0.20;;;13.30;69.20;;;16.42;56.37;100511.81;5037888;27;96774;-72
2021/05/21 02:15:15;;;;;;;0.00;0.00;;;13.30;69.30;;;16.44;55.84;100512.25;5017600;27;97143;-72
2021/05/21 02:17:43;;;;;;;0.00;0.00;;;13.30;69.30;;;16.48;56.81;100507.72;5051058;27;96985;-72
2021/05/21 02:20:13;;;;;;;0.00;0.00;;;13.30;69.30;;;16.47;56.65;100503.44;5047205;27;97005;-72
2021/05/21 02:22:43;;;;;;;0.00;0.00;;;13.30;69.90;;;16.46;57.05;100504.56;5032494;27;96940;-72
2021/05/21 02:25:15;;;;;;;0.00;0.00;;;13.30;69.40;;;16.49;55.92;100504.69;5051269;27;97081;-72
2021/05/21 02:27:43;;;;;;;0.20;0.20;;;13.30;69.40;;;16.47;56.39;100488.03;5047949;27;96921;-72
2021/05/21 02:30:13;;;;;;;0.28;0.28;;;13.20;69.30;;;16.48;56.11;100478.78;5034990;27;97687;-72
2021/05/21 02:32:42;;;;;;;18.73;1.52;;;13.20;69.30;;;16.48;56.26;100475.25;5034723;27;97666;-72
2021/05/21 02:35:12;;;;;;;0.00;0.00;;;13.30;69.40;;;16.45;56.13;100475.97;5052982;27;96894;-73
2021/05/21 02:37:40;;;;;;;0.00;0.00;;;13.20;69.30;;;16.41;55.66;100469.69;5049783;27;97913;-72
2021/05/21 02:40:12;;;;;;;0.10;0.10;;;13.20;69.30;;;16.36;56.44;100476.13;5051000;27;98098;-72
2021/05/21 02:42:40;;;;;;;0.47;0.35;;;13.20;69.40;;;16.27;55.98;100470.06;5051517;27;96774;-72
2021/05/21 02:45:09;;;;;;;0.00;0.00;;;13.20;69.40;;;16.14;57.15;100470.44;5052128;27;96930;-72
2021/05/21 02:47:37;;;;;;;0.10;0.10;;;13.10;69.40;;;16.11;57.09;100476.53;5030643;27;98156;-72
2021/05/21 02:50:09;;;;;;;0.00;0.00;;;13.10;69.40;;;16.08;56.23;100469.13;5049507;27;97684;-72
2021/05/21 02:52:37;;;;;;;0.10;0.10;;;13.00;69.50;;;16.05;57.08;100476.00;5033746;27;97034;-72
2021/05/21 02:55:07;;;;;;;0.08;0.08;;;13.00;69.50;;;16.02;56.77;100471.28;5029962;27;97014;-72
2021/05/21 02:57:36;;;;;;;0.00;0.00;;;12.90;69.50;;;16.07;57.02;100481.06;5014597;27;97949;-72
2021/05/21 03:00:09;;;;;;;0.00;0.00;;;12.90;69.60;;;16.07;56.62;100479.16;5039580;27;97884;-72
2021/05/21 03:02:40;;;;;;;0.22;0.22;;;12.90;69.60;;;16.07;56.13;100476.47;5000120;27;96857;-72
2021/05/21 03:05:09;;;;;;;0.00;0.00;;;12.90;69.70;;;16.08;56.60;100472.63;5048472;27;96871;-72
2021/05/21 03:07:37;;;;;;;0.32;0.32;;;12.90;69.70;;;16.08;57.14;100474.53;5047726;27;97169;-72
2021/05/21 03:10:07;;;;;;;0.45;0.45;;;12.90;69.70;;;16.09;57.25;100478.81;5016915;27;97853;-72
2021/05/21 03:12:37;;;;;;;14.25;0.35;;;13.00;69.80;;;16.13;56.04;100485.09;5033939;27;97433;-72
2021/05/21 03:15:08;;;;;;;0.15;0.15;;;12.90;69.70;;;16.20;55.89;100490.69;5032528;27;97044;-72
2021/05/21 03:17:36;;;;;;;0.00;0.00;;;13.00;69.70;;;16.25;56.81;100504.00;5049959;27;97104;-72
2021/05/21 03:20:08;;;;;;;0.03;0.03;;;13.00;69.70;;;16.26;55.84;100498.22;5049044;27;96765;-72
2021/05/21 03:22:36;;;;;;;0.10;0.10;;;13.00;69.70;;;16.21;56.61;100494.97;5049703;27;96979;-72
2021/05/21 03:25:06;;;;;;;0.00;0.00;;;13.00;69.80;;;16.21;56.59;100482.25;5044608;27;97163;-72
2021/05/21 03:27:35;;;;;;;0.20;0.20;;;13.00;69.70;;;16.22;56.10;100489.22;5025051;27;97747;-72
2021/05/21 03:30:10;;;;;;;0.00;0.00;;;13.00;69.80;;;16.19;55.99;100483.72;5047482;27;96794;-72
2021/05/21 03:32:39;;;;;;;0.28;0.28;;;13.00;69.80;;;16.19;56.73;100484.50;5045571;27;97134;-72
2021/05/21 03:35:10;;;;;;;0.20;0.20;;;13.00;69.80;;;16.16;56.27;100479.00;5027341;27;96996;-72
2021/05/21 03:37:38;;;;;;;0.70;0.40;;;13.00;70.00;;;16.16;56.37;100481.69;5032531;27;96854;-72
2021/05/21 03:40:07;;;;;;;0.00;0.00;;;13.00;69.90;;;16.23;56.76;100490.03;5033175;27;97693;-72
2021/05/21 03:42:36;;;;;;;0.20;0.20;;;13.00;69.90;;;16.18;56.58;100509.16;5017586;27;97012;-73
2021/05/21 03:45:08;;;;;;;0.05;0.05;;;13.00;70.00;;;16.20;56.31;100528.53;5046737;27;97416;-72
2021/05/21 03:47:36;;;;;;;0.20;0.20;;;13.00;70.00;;;16.06;57.04;100511.94;5016071;27;98042;-71
2021/05/21 03:50:07;;;;;;;0.00;0.00;;;13.00;70.10;;;15.90;57.50;100517.28;5034961;27;97245;-71
2021/05/21 03:52:36;;;;;;;2.90;0.63;;;12.90;70.10;;;15.74;57.18;100515.63;5044217;27;97122;-70
2021/05/21 03:55:10;;;;;;;0.05;0.05;;;12.80;70.10;;;15.65;57.04;100506.88;5031325;27;97357;-70
2021/05/21 03:57:38;;;;;;;0.10;0.10;;;12.70;70.20;;;15.51;57.17;100500.25;5030282;27;97844;-70
2021/05/21 04:00:14;;;;;;;0.00;0.00;;;12.60;70.30;;;15.40;57.41;100502.63;5043885;27;96864;-70
2021/05/21 04:02:43;;;;;;;0.20;0.20;;;12.50;70.50;;;15.25;57.60;100495.16;5045258;27;96759;-71
2021/05/21 04:05:12;;;;;;;2.55;0.90;;;12.40;71.30;;;15.22;57.49;100498.53;5049326;27;96818;-70
2021/05/21 04:07:41;;;;;;;0.22;0.17;;;12.30;70.70;;;15.13;57.58;100489.78;5030415;27;97398;-71
2021/05/21 04:10:12;;;;;;;0.63;0.45;;;12.20;70.90;;;15.09;57.69;100483.47;5029203;27;97839;-71
2021/05/21 04:12:40;;;;;;;0.10;0.10;;;12.20;70.90;;;15.00;58.03;100496.25;5046334;27;96939;-71
2021/05/21 04:15:12;;;;;;;0.20;0.20;;;12.10;71.10;;;14.99;58.12;100493.91;5012478;27;96885;-71
2021/05/21 04:17:40;;;;;;;0.93;0.93;;;12.00;71.10;;;14.90;57.66;100471.66;5028315;27;97098;-70
2021/05/21 04:20:11;;;;;;;0.00;0.00;;;11.90;71.10;;;14.76;57.75;100471.97;5026951;27;97655;-71
2021/05/21 04:22:40;;;;;;;0.00;0.00;;;11.90;71.10;;;14.66;58.41;100468.94;5047713;27;96722;-70
2021/05/21 04:25:10;;;;;;;3.83;0.65;;;11.80;71.20;;;14.62;58.56;100466.09;5027259;27;96726;-71
2021/05/21 04:27:39;;;;;;;0.00;0.00;;;11.80;71.20;;;14.64;58.38;100465.78;5044716;27;97022;-71
2021/05/21 04:30:09;;;;;;;0.10;0.10;;;11.70;71.30;;;14.57;57.92;100469.00;5046354;27;97703;-71
2021/05/21 04:32:37;;;;;;;4.07;2.17;;;11.70;71.40;;;14.51;58.21;100464.97;5044488;27;97230;-71
2021/05/21 04:35:08;;;;;;;0.15;0.15;;;11.60;71.40;;;14.46;58.31;100465.19;5047517;27;96942;-70
2021/05/21 04:37:36;;;;;;;0.08;0.08;;;11.60;71.40;;;14.47;58.36;100474.03;5028468;27;97733;-71
2021/05/21 04:40:07;;;;;;;23.17;1.38;;;11.50;71.50;;;14.52;58.30;100466.53;5026718;27;96903;-70
2021/05/21 04:42:44;;;;;;;0.00;0.00;;;11.50;71.70;;;14.55;58.38;100457.78;5025464;27;96944;-71
2021/05/21 04:45:19;;;;;;;0.47;0.47;;;11.50;71.70;;;14.53;58.22;100448.44;5047104;27;96998;-71
2021/05/21 04:47:47;;;;;;;4.18;0.63;;;11.50;71.60;;;14.52;57.66;100442.28;5048859;27;96947;-70
2021/05/21 04:50:15;;;;;;;0.00;0.00;;;11.50;71.60;;;14.49;57.96;100426.78;5029575;27;96831;-71
2021/05/21 04:52:44;;;;;;;3.92;1.30;;;11.40;71.60;;;14.47;58.21;100429.00;5045489;27;96784;-71
2021/05/21 04:55:13;;;;;;;0.55;0.38;;;11.40;71.60;;;14.49;58.05;100423.28;5050026;27;96857;-70
2021/05/21 04:57:42;;;;;;;0.25;0.25;;;11.40;71.70;;;14.47;57.90;100422.81;5012740;27;96837;-71
2021/05/21 05:00:12;;;;;;;2.05;0.82;;;11.40;71.70;;;14.45;58.19;100425.88;5040845;27;96998;-71
2021/05/21 05:02:41;;;;;;;0.10;0.10;;;11.40;71.70;;;14.53;57.72;100421.47;5045237;27;97562;-70
2021/05/21 05:05:11;;;;;;;0.73;0.47;;;11.40;71.70;;;14.60;57.56;100417.13;5031995;27;96728;-70
2021/05/21 05:07:40;;;;;;;0.10;0.10;;;11.40;71.70;;;14.62;57.58;100417.56;5045083;27;97727;-71
2021/05/21 05:10:10;;;;;;;0.17;0.17;;;11.40;71.60;;;14.61;57.73;100412.53;5045088;27;97739;-70
2021/05/21 05:12:40;;;;;;;1.35;0.73;;;11.40;71.60;;;14.61;57.54;100410.59;5044878;27;97036;-70
2021/05/21 05:15:09;;;;;;;0.00;0.00;;;11.40;71.60;;;14.61;57.61;100394.41;5044828;27;96775;-71
2021/05/21 05:17:37;;;;;;;0.00;0.00;;;11.40;71.60;;;14.54;57.82;100391.50;5028294;27;97964;-70
2021/05/21 05:20:09;;;;;;;0.10;0.10;;;11.40;71.60;;;14.62;57.64;100396.00;5044123;27;96764;-70
2021/05/21 05:22:37;;;;;;;28.42;5.35;;;11.40;71.60;;;14.62;57.72;100390.59;5045972;27;97628;-71
2021/05/21 05:25:08;;;;;;;0.00;0.00;;;11.40;71.60;;;14.73;57.12;100389.06;5046451;27;96973;-71
2021/05/21 05:27:36;;;;;;;0.35;0.30;;;11.50;71.60;;;14.84;57.15;100395.56;5043400;27;96930;-71
2021/05/21 05:30:07;;;;;;;0.03;0.03;;;11.50;71.70;;;15.01;57.21;100397.22;5031505;27;96779;-71
2021/05/21 05:32:35;;;;;;;1.15;0.47;;;11.60;71.70;;;15.08;57.12;100390.16;5027852;27;96876;-71
2021/05/21 05:35:06;;;;;;;0.22;0.22;;;11.70;71.70;;;15.15;57.40;100393.06;5028299;27;97042;-70
2021/05/21 05:37:34;;;;;;;10.98;0.90;;;11.80;71.60;;;15.14;57.27;100399.59;5032508;27;97935;-71
2021/05/21 05:40:07;;;;;;;0.65;0.35;;;11.90;71.60;;;15.24;57.18;100399.09;5025370;27;97055;-70
2021/05/21 05:42:40;;;;;;;0.10;0.10;;;12.00;71.40;;;15.30;57.55;100400.47;5027276;27;97362;-71
2021/05/21 05:45:11;;;;;;;0.10;0.10;;;12.00;71.30;;;15.37;57.49;100399.91;5051277;27;96906;-70
2021/05/21 05:47:40;;;;;;;0.52;0.50;;;12.10;71.30;;;15.53;56.61;100398.84;5052995;27;96842;-70
2021/05/21 05:50:11;;;;;;;6.03;0.68;;;12.10;71.40;;;15.75;56.81;100395.63;5029767;27;97797;-71
2021/05/21 05:52:40;;;;;;;0.17;0.17;;;12.30;71.70;;;15.97;57.10;100387.75;5028551;27;96838;-71
2021/05/21 05:55:10;;;;;;;0.00;0.00;;;12.40;71.50;;;15.96;56.77;100382.72;5016445;27;97224;-71
2021/05/21 05:57:38;;;;;;;0.00;0.00;;;12.60;71.60;;;16.02;56.52;100389.44;5051137;27;97917;-71
2021/05/21 06:00:09;;;;;;;4.78;0.50;;;12.60;71.40;;;16.20;56.68;100377.94;5048472;27;96808;-71
2021/05/21 06:02:37;;;;;;;4.35;0.63;;;12.70;71.40;;;16.26;56.23;100376.56;5027766;27;96836;-71
2021/05/21 06:05:08;;;;;;;0.20;0.20;;;12.80;71.40;;;16.26;57.18;100381.97;5048672;27;96926;-71
2021/05/21 06:07:36;;;;;;;4.68;1.00;;;12.80;71.30;;;16.30;56.34;100369.31;5046332;27;97917;-71
2021/05/21 06:10:12;;;;;;;0.00;0.00;;;12.90;71.40;;;16.49;56.66;100369.44;5048977;27;96794;-71
2021/05/21 06:12:43;;;;;;;2.20;0.35;;;12.90;71.60;;;16.57;56.81;100363.06;5047966;27;96945;-71
2021/05/21 06:15:13;;;;;;;0.45;0.20;;;13.10;71.60;;;16.52;56.41;100352.53;5048936;27;96794;-71
2021/05/21 06:17:42;;;;;;;0.85;0.85;;;13.20;71.50;;;16.41;56.75;100369.63;5044511;27;97000;-71
2021/05/21 06:20:13;;;;;;;0.95;0.40;;;13.20;71.30;;;16.56;56.63;100358.81;5049402;27;98031;-71
2021/05/21 06:22:41;;;;;;;0.10;0.10;;;13.20;71.50;;;16.96;56.92;100342.34;5034541;27;97169;-71
2021/05/21 06:25:12;;;;;;;8.05;0.65;;;13.30;71.80;;;17.25;57.05;100352.66;5051126;27;97080;-71
2021/05/21 06:27:40;;;;;;;0.80;0.80;;;13.50;72.00;;;17.71;56.24;100347.06;5048430;27;98149;-71
2021/05/21 06:30:12;;;;;;;2.40;0.43;;;13.70;72.20;;;18.51;55.43;100339.63;5049167;27;96869;-71
2021/05/21 06:32:43;;;;;;;1.45;1.00;;;14.10;72.80;;;19.26;55.36;100336.47;5051652;27;97560;-71
2021/05/21 06:35:13;;;;;;;1.05;0.20;;;14.60;73.30;;;20.05;54.61;100345.19;5045335;27;97536;-71
2021/05/21 06:37:42;;;;;;;0.52;0.45;;;15.20;73.70;;;20.84;55.01;100341.59;5016125;27;97249;-71
2021/05/21 06:40:11;;;;;;;0.43;0.38;;;15.80;74.10;;;21.61;54.80;100331.91;5049400;27;98960;-71
2021/05/21 06:42:40;;;;;;;0.68;0.60;;;16.50;74.10;;;22.13;55.12;100331.25;5042991;27;96760;-72
2021/05/21 06:45:09;;;;;;;11.13;0.40;;;17.10;74.00;;;22.71;54.88;100324.28;5051845;27;96707;-70
2021/05/21 06:47:38;;;;;;;0.25;0.25;;;17.60;73.80;;;23.05;55.17;100322.63;5048832;27;97023;-70
2021/05/21 06:50:08;;;;;;;1.40;0.10;;;18.10;73.60;;;23.23;55.32;100322.63;5050548;27;97824;-69
2021/05/21 06:52:38;;;;;;;1.25;0.55;;;18.50;73.10;;;23.28;56.05;100314.00;5015522;27;96965;-70
2021/05/21 06:55:09;;;;;;;0.40;0.40;;;18.70;73.00;;;23.58;56.33;100315.06;5030331;27;98009;-70
2021/05/21 06:57:37;;;;;;;1.75;0.25;;;19.00;73.20;;;23.91;56.53;100324.66;5045683;27;97976;-70
2021/05/21 07:00:09;;;;;;;2.75;0.32;;;19.40;73.50;;;24.21;56.40;100318.19;5048634;27;96719;-69
2021/05/21 07:02:38;;;;;;;5.37;0.77;;;19.70;73.10;;;24.46;56.13;100317.97;5047514;27;97119;-70
2021/05/21 07:05:08;;;;;;;6.25;0.85;;;20.00;73.10;;;24.68;56.51;100308.44;5030802;27;97221;-70
2021/05/21 07:07:37;;;;;;;1.35;0.38;;;20.20;72.80;;;24.86;56.67;100304.31;5012802;28;97954;-70
2021/05/21 07:10:10;;;;;;;6.13;0.98;;;20.50;73.00;;;25.11;56.36;100304.84;5046202;27;96821;-70
2021/05/21 07:12:39;;;;;;;0.00;0.00;;;20.70;72.70;;;25.23;56.67;100301.59;5045460;27;96726;-70
2021/05/21 07:15:09;;;;;;;0.57;0.30;;;20.80;72.60;;;25.30;56.48;100300.72;5044656;27;97753;-70
2021/05/21 07:17:37;;;;;;;4.22;1.25;;;20.90;72.60;;;25.22;56.62;100311.03;5028757;27;98157;-70
2021/05/21 07:20:10;;;;;;;27.35;1.30;;;21.00;72.30;;;25.22;56.96;100289.09;5050077;27;98030;-70
2021/05/21 07:22:43;;;;;;;2.35;0.57;;;21.10;72.20;;;25.26;57.29;100287.06;5048713;27;97033;-70
2021/05/21 07:25:12;;;;;;;0.28;0.22;;;21.20;72.40;;;25.38;57.41;100286.50;5048796;27;96847;-71
2021/05/21 07:27:40;;;;;;;9.18;0.70;;;21.20;72.20;;;25.27;57.95;100288.63;5047562;27;98000;-70
2021/05/21 07:30:11;;;;;;;6.15;1.27;;;21.30;72.20;;;25.48;57.26;100288.34;5048758;27;97657;-71
2021/05/21 07:32:39;;;;;;;1.77;0.75;;;21.40;72.40;;;25.74;57.11;100282.09;5012252;27;96743;-71
2021/05/21 07:35:09;;;;;;;2.63;1.45;;;21.60;72.30;;;25.58;57.12;100283.91;5030753;27;96809;-71
2021/05/21 07:37:38;;;;;;;2.33;0.55;;;21.60;71.70;;;25.30;58.40;100279.56;5029136;27;98458;-72
2021/05/21 07:40:10;;;;;;;0.10;0.10;;;21.60;71.80;;;25.64;57.48;100291.25;5048143;27;97211;-71
2021/05/21 07:42:39;;;;;;;0.10;0.10;;;21.70;71.90;;;25.79;57.21;100278.88;5048409;27;96806;-71
2021/05/21 07:45:10;;;;;;;4.53;0.68;;;21.80;71.80;;;26.16;56.97;100279.50;5048267;27;97575;-71
2021/05/21 07:47:39;;;;;;;1.17;0.57;;;22.00;72.00;;;26.41;56.42;100268.09;5032058;27;97829;-71
2021/05/21 07:50:12;;;;;;;4.15;1.10;;;22.10;71.80;;;26.62;56.49;100260.31;5031177;27;98015;-72
2021/05/21 07:52:41;;;;;;;3.13;0.60;;;22.40;71.70;;;26.73;56.59;100271.13;5031882;27;97013;-72
2021/05/21 07:55:12;;;;;;;13.43;0.30;;;22.60;71.40;;;26.92;55.92;100270.34;5032923;27;96984;-72
2021/05/21 07:57:41;;;;;;;0.40;0.40;;;22.80;71.00;;;26.85;56.26;100262.22;5031182;27;96991;-72
2021/05/21 08:00:12;;;;;;;0.28;0.25;;;22.80;70.70;;;26.46;56.92;100268.41;5027189;27;97982;-72
2021/05/21 08:02:42;;;;;;;3.08;0.47;;;22.80;70.50;;;26.39;57.48;100262.25;5043670;27;96963;-71
2021/05/21 08:05:11;;;;;;;1.15;0.55;;;22.70;70.90;;;26.31;56.77;100277.31;5046332;27;97066;-70
2021/05/21 08:07:44;;;;;;;1.65;0.65;;;22.70;70.50;;;25.60;57.41;100277.59;5042555;27;98006;-71
2021/05/21 08:10:14;;;;;;;0.75;0.73;;;22.40;69.90;;;24.70;59.09;100278.66;5025109;27;96788;-70
2021/05/21 08:12:42;;;;;;;3.15;0.60;;;22.00;69.40;;;23.83;59.91;100284.84;5028547;27;96790;-71
2021/05/21 08:15:14;;;;;;;2.60;1.15;;;21.40;69.70;;;23.14;60.47;100268.34;5048623;27;97485;-70
2021/05/21 08:17:42;;;;;;;10.38;0.43;;;20.80;69.80;;;22.73;61.06;100277.44;5026376;27;97994;-70
2021/05/21 08:20:17;;;;;;;0.15;0.15;;;20.40;70.30;;;22.51;60.87;100270.44;5046939;27;97133;-70
2021/05/21 08:22:47;;;;;;;16.05;1.60;;;20.00;70.40;;;22.50;60.25;100261.47;5024927;27;97271;-70
2021/05/21 08:25:16;;;;;;;7.65;0.68;;;19.80;70.70;;;22.69;59.57;100261.06;5029638;27;96852;-71
2021/05/21 08:27:44;;;;;;;3.80;1.27;;;19.60;71.10;;;23.10;58.65;100256.66;5029916;27;98081;-70
2021/05/21 08:30:14;;;;;;;0.00;0.00;;;19.60;71.30;;;23.72;57.45;100268.44;5048125;27;97326;-69
2021/05/21 08:32:43;;;;;;;2.90;1.23;;;19.80;71.70;;;24.24;56.65;100254.41;5046348;27;97414;-70
2021/05/21 08:35:12;;;;;;;16.50;0.60;;;20.10;71.30;;;24.02;56.44;100261.25;5048017;27;96965;-72
2021/05/21 08:37:41;;;;;;;1.08;0.05;;;20.30;70.60;;;23.69;57.17;100255.56;5030260;27;97435;-72
2021/05/21 08:40:12;;;;;;;29.02;0.55;;;20.20;70.20;;;23.72;57.06;100260.25;5028059;27;97364;-71
2021/05/21 08:42:43;;;;;;;0.32;0.32;;;20.20;70.20;;;23.77;56.73;100248.09;5048696;27;96820;-71
2021/05/21 08:45:14;;;;;;;0.00;0.00;;;20.20;70.10;;;23.82;56.63;100255.91;5046271;27;97205;-71
2021/05/21 08:47:42;;;;;;;0.32;0.15;;;20.20;70.00;;;24.06;55.90;100256.53;5007717;27;98787;-70
2021/05/21 08:50:13;;;;;;;3.92;1.02;;;20.30;69.90;;;24.29;55.75;100248.47;5026023;27;97676;-70
2021/05/21 08:52:42;;;;;;;2.33;0.50;;;20.40;69.70;;;24.24;55.51;100257.13;5043185;27;100320;-70
2021/05/21 08:55:12;;;;;;;0.10;0.10;;;20.40;69.40;;;24.30;55.83;100250.03;5041389;27;99207;-70
2021/05/21 08:57:41;;;;;;;2.20;0.45;;;20.50;69.40;;;24.47;55.36;100265.53;5009882;27;97113;-71
2021/05/21 09:00:14;;;;;;;0.63;0.10;;;20.60;69.40;;;24.34;55.63;100260.97;5030460;27;96822;-70
2021/05/21 09:02:43;;;;;;;1.42;0.20;;;20.60;69.00;;;24.18;55.96;100253.28;5025040;27;96801;-70
2021/05/21 09:05:13;;;;;;;3.40;1.10;;;20.50;69.00;;;23.97;55.96;100263.63;5031325;27;97058;-70
2021/05/21 09:07:43;;;;;;;2.83;0.40;;;20.50;68.80;;;23.40;56.39;100261.59;5048457;27;98040;-71
2021/05/21 09:10:15;;;;;;;1.85;0.22;;;20.20;68.70;;;22.73;57.59;100271.97;5026684;27;98563;-71
2021/05/21 09:12:47;;;;;;;1.00;0.43;;;19.90;68.80;;;22.07;58.53;100318.38;5045546;27;96992;-71
2021/05/21 09:15:17;;;;;;;0.00;0.00;;;19.50;68.70;;;21.32;58.78;100308.41;5046553;27;96792;-70
2021/05/21 09:17:55;;;;;;;4.50;0.82;;;19.00;68.70;;;20.57;59.48;100295.88;5040981;27;97220;-71
2021/05/21 09:20:28;;;;;;;2.90;1.08;;;18.40;68.50;;;20.01;60.44;100304.38;5029084;27;100121;-70
2021/05/21 09:23:07;;;;;;;0.17;0.17;;;17.90;69.00;;;19.74;60.11;100302.09;5029363;27;97583;-70
2021/05/21 09:25:45;;;;;;;0.08;0.08;;;17.40;69.40;;;19.68;59.58;100295.44;5047342;27;96688;-70
2021/05/21 09:28:36;;;;;;;0.00;0.00;;;17.20;70.20;;;19.79;59.69;100288.97;5030027;27;97077;-72
2021/05/21 09:31:11;;;;;;;0.30;0.22;;;17.00;70.40;;;19.96;58.52;100287.56;5010029;27;98123;-72
2021/05/21 09:33:44;;;;;;;3.85;0.70;;;16.90;70.60;;;20.12;58.48;100280.75;5043756;27;97342;-72
2021/05/21 09:36:13;;;;;;;2.30;0.57;;;16.90;70.30;;;20.25;57.92;100283.97;5027949;27;97098;-72
2021/05/21 09:38:48;;;;;;;0.35;0.13;;;16.90;70.30;;;20.52;56.72;100288.84;5045426;27;98369;-72
2021/05/21 09:41:18;;;;;;;2.65;0.30;;;17.00;70.30;;;20.81;55.91;100271.53;5042691;27;97621;-72
2021/05/21 09:43:51;;;;;;;3.72;1.00;;;17.10;70.10;;;21.06;55.87;100273.25;5046834;27;97056;-72
2021/05/21 09:46:20;;;;;;;4.53;0.60;;;17.30;70.00;;;21.45;54.96;100278.84;5029144;27;97256;-72
2021/05/21 09:48:51;;;;;;;1.65;0.30;;;17.50;69.60;;;21.91;54.69;100279.78;5042100;27;98004;-72
2021/05/21 09:51:22;;;;;;;0.00;0.00;;;17.80;69.50;;;22.29;53.65;100280.56;5027948;27;97687;-72
2021/05/21 09:54:01;;;;;;;0.47;0.45;;;18.10;69.00;;;22.52;53.59;100261.84;5024863;27;96753;-72
2021/05/21 09:56:31;;;;;;;0.20;0.20;;;18.40;68.50;;;22.66;53.48;100263.78;5042995;27;97849;-72
2021/05/21 09:59:02;;;;;;;0.47;0.47;;;18.60;68.20;;;22.62;53.70;100265.75;5025665;27;97413;-72
2021/05/21 10:01:32;;;;;;;0.08;0.08;;;18.80;67.80;;;22.26;54.52;100258.75;5025496;27;96903;-73
2021/05/21 10:04:03;;;;;;;0.43;0.10;;;18.80;67.50;;;21.95;54.86;100286.81;5042917;27;96735;-72
2021/05/21 10:06:35;;;;;;;2.83;0.28;;;18.70;67.60;;;21.33;55.74;100306.47;5029498;27;97534;-72
2021/05/21 10:09:06;;;;;;;0.55;0.55;;;18.50;67.40;;;20.41;57.17;100298.88;5043097;27;98299;-70
2021/05/21 10:11:35;;;;;;;16.88;1.85;;;18.10;67.30;;;19.39;58.06;100277.25;5042697;27;97256;-70
2021/05/21 10:14:04;;;;;;;0.32;0.32;;;17.60;67.20;;;18.60;59.58;100286.63;5043852;27;96700;-70
2021/05/21 10:16:34;;;;;;;0.00;0.00;;;17.00;67.60;;;18.25;59.90;100275.22;5030104;27;97202;-71
2021/05/21 10:19:06;;;;;;;0.38;0.38;;;16.40;68.40;;;17.83;60.16;100284.56;5043797;27;96863;-71
2021/05/21 10:21:35;;;;;;;2.90;0.40;;;16.00;68.80;;;17.64;60.23;100296.22;5026410;27;97167;-71
2021/05/21 10:24:10;;;;;;;0.00;0.00;;;15.60;69.50;;;17.45;61.11;100315.22;5042793;27;97197;-70